TimeEDT,TemperatureF,Dew PointF,Humidity,Sea Level PressureIn,VisibilityMPH,Wind Direction,Wind SpeedMPH,Gust SpeedMPH,PrecipitationIn,Events,Conditions,WindDirDegrees,DateUTC
12:56 AM,73.0,66.9,81,29.97,10.0,WSW,3.5,-,N/A,,Clear,250,2013-07-08 04:56:00
1:56 AM,72.0,66.9,84,29.96,10.0,Variable,4.6,-,N/A,,Clear,0,2013-07-08 05:56:00
2:56 AM,72.0,66.0,81,29.96,10.0,West,8.1,-,N/A,,Clear,260,2013-07-08 06:56:00
3:56 AM,71.1,66.0,84,29.96,10.0,West,5.8,-,N/A,,Clear,260,2013-07-08 07:56:00
4:56 AM,70.0,66.9,90,29.97,10.0,Variable,5.8,-,N/A,,Clear,0,2013-07-08 08:56:00
5:56 AM,70.0,66.9,90,29.98,10.0,West,5.8,-,N/A,,Clear,260,2013-07-08 09:56:00
6:56 AM,72.0,66.9,84,29.99,10.0,West,4.6,-,N/A,,Clear,260,2013-07-08 10:56:00
7:56 AM,73.9,68.0,82,30.00,10.0,West,6.9,-,N/A,,Clear,260,2013-07-08 11:56:00
8:56 AM,77.0,69.1,76,30.01,10.0,WNW,8.1,-,N/A,,Clear,300,2013-07-08 12:56:00
9:56 AM,79.0,68.0,69,30.01,10.0,WNW,5.8,-,N/A,,Clear,300,2013-07-08 13:56:00
10:56 AM,82.0,68.0,62,30.01,10.0,NW,6.9,-,N/A,,Partly Cloudy,310,2013-07-08 14:56:00
11:56 AM,84.0,66.0,55,30.01,10.0,WNW,9.2,-,N/A,,Scattered Clouds,290,2013-07-08 15:56:00
12:56 PM,84.9,66.0,53,30.01,10.0,West,11.5,-,N/A,,Partly Cloudy,280,2013-07-08 16:56:00
1:56 PM,86.0,64.9,49,30.01,10.0,SW,8.1,-,N/A,,Scattered Clouds,230,2013-07-08 17:56:00
2:56 PM,84.9,64.0,49,29.99,10.0,Variable,4.6,16.1,N/A,,Scattered Clouds,0,2013-07-08 18:56:00
3:56 PM,86.0,64.9,49,29.98,10.0,Calm,Calm,-,N/A,,Partly Cloudy,0,2013-07-08 19:56:00
4:56 PM,86.0,64.9,49,29.96,10.0,WSW,5.8,-,N/A,,Clear,250,2013-07-08 20:56:00
5:56 PM,86.0,64.9,49,29.95,10.0,West,8.1,-,N/A,,Scattered Clouds,280,2013-07-08 21:56:00
6:56 PM,84.9,66.9,55,29.96,10.0,SSW,9.2,-,N/A,,Scattered Clouds,200,2013-07-08 22:56:00
7:56 PM,81.0,66.0,60,29.98,10.0,South,4.6,-,N/A,,Mostly Cloudy,180,2013-07-08 23:56:00
8:24 PM,80.6,68.0,65,30.00,10.0,South,8.1,-,N/A,Thunderstorm,Thunderstorm,180,2013-07-09 00:24:00
8:56 PM,77.0,69.1,76,30.01,10.0,South,8.1,17.3,N/A,Thunderstorm,Thunderstorm,190,2013-07-09 00:56:00
9:39 PM,73.4,69.8,88,30.04,8.0,Calm,Calm,-,0.00,,Partly Cloudy,0,2013-07-09 01:39:00
9:56 PM,73.9,69.1,85,30.02,8.0,Calm,Calm,-,0.00,,Partly Cloudy,0,2013-07-09 01:56:00
10:56 PM,77.0,66.9,71,30.02,10.0,West,6.9,-,N/A,,Clear,260,2013-07-09 02:56:00
11:56 PM,75.9,66.9,74,30.02,10.0,WSW,3.5,-,N/A,,Clear,240,2013-07-09 03:56:00